sensor_id;sensor_type;location;lat;lon;timestamp;temperature;humidity
19060;DHT22;9663;48.996;8.334;2023-04-03T00:00:08;9.00;63.80
19060;DHT22;9663;48.996;8.334;2023-04-03T00:02:35;8.50;64.30
19060;DHT22;9663;48.996;8.334;2023-04-03T00:05:01;9.50;64.20
19060;DHT22;9663;48.996;8.334;2023-04-03T00:07:26;12.00;65.60
19060;DHT22;9663;48.996;8.334;2023-04-03T00:09:52;7.90;63.00
19060;DHT22;9663;48.996;8.334;2023-04-03T00:12:18;9.90;64.60
19060;DHT22;9663;48.996;8.334;2023-04-03T00:14:43;9.10;63.70
19060;DHT22;9663;48.996;8.334;2023-04-03T00:17:09;8.40;63.20
19060;DHT22;9663;48.996;8.334;2023-04-03T00:19:35;8.70;61.60
19060;DHT22;9663;48.996;8.334;2023-04-03T00:22:01;8.60;63.60
19060;DHT22;9663;48.996;8.334;2023-04-03T00:24:26;12.50;65.70
19060;DHT22;9663;48.996;8.334;2023-04-03T00:26:52;8.40;63.60
19060;DHT22;9663;48.996;8.334;2023-04-03T00:29:18;11.50;65.10
19060;DHT22;9663;48.996;8.334;2023-04-03T00:31:44;8.10;62.70
19060;DHT22;9663;48.996;8.334;2023-04-03T00:34:10;8.50;62.90
19060;DHT22;9663;48.996;8.334;2023-04-03T00:36:36;8.50;63.30
19060;DHT22;9663;48.996;8.334;2023-04-03T00:39:02;9.60;64.80
19060;DHT22;9663;48.996;8.334;2023-04-03T00:41:27;8.60;63.70
19060;DHT22;9663;48.996;8.334;2023-04-03T00:43:53;8.50;61.50
19060;DHT22;9663;48.996;8.334;2023-04-03T00:46:19;8.60;61.70
19060;DHT22;9663;48.996;8.334;2023-04-03T00:48:47;8.10;63.30
19060;DHT22;9663;48.996;8.334;2023-04-03T00:51:17;8.50;61.90
19060;DHT22;9663;48.996;8.334;2023-04-03T00:53:52;8.60;62.10
19060;DHT22;9663;48.996;8.334;2023-04-03T00:56:23;8.60;61.70
19060;DHT22;9663;48.996;8.334;2023-04-03T00:59:06;8.50;61.60
19060;DHT22;9663;48.996;8.334;2023-04-03T01:01:37;8.50;65.30
19060;DHT22;9663;48.996;8.334;2023-04-03T01:04:04;8.50;63.10
19060;DHT22;9663;48.996;8.334;2023-04-03T01:06:35;8.90;63.20
19060;DHT22;9663;48.996;8.334;2023-04-03T01:09:03;8.70;62.90
19060;DHT22;9663;48.996;8.334;2023-04-03T01:11:29;8.30;62.60
19060;DHT22;9663;48.996;8.334;2023-04-03T01:13:55;8.50;63.30
19060;DHT22;9663;48.996;8.334;2023-04-03T01:16:21;7.70;62.30
19060;DHT22;9663;48.996;8.334;2023-04-03T01:18:47;8.00;62.60
19060;DHT22;9663;48.996;8.334;2023-04-03T01:21:53;8.40;64.80
19060;DHT22;9663;48.996;8.334;2023-04-03T01:24:35;8.20;64.90
19060;DHT22;9663;48.996;8.334;2023-04-03T01:27:04;6.80;61.40
19060;DHT22;9663;48.996;8.334;2023-04-03T01:29:31;7.40;62.00
19060;DHT22;9663;48.996;8.334;2023-04-03T01:31:59;11.90;65.00
19060;DHT22;9663;48.996;8.334;2023-04-03T01:34:27;7.60;62.20
19060;DHT22;9663;48.996;8.334;2023-04-03T01:36:53;8.50;61.20
19060;DHT22;9663;48.996;8.334;2023-04-03T01:39:20;9.10;63.20
19060;DHT22;9663;48.996;8.334;2023-04-03T01:41:47;11.90;65.10
19060;DHT22;9663;48.996;8.334;2023-04-03T01:44:13;9.00;63.30
19060;DHT22;9663;48.996;8.334;2023-04-03T01:46:39;8.40;63.10
19060;DHT22;9663;48.996;8.334;2023-04-03T01:49:04;8.30;61.20
19060;DHT22;9663;48.996;8.334;2023-04-03T01:51:30;8.30;61.20
19060;DHT22;9663;48.996;8.334;2023-04-03T01:53:56;8.20;63.20
19060;DHT22;9663;48.996;8.334;2023-04-03T01:56:22;8.20;61.00
19060;DHT22;9663;48.996;8.334;2023-04-03T01:58:48;8.20;62.90
19060;DHT22;9663;48.996;8.334;2023-04-03T02:01:13;8.90;63.30
19060;DHT22;9663;48.996;8.334;2023-04-03T02:03:40;8.30;63.80
19060;DHT22;9663;48.996;8.334;2023-04-03T02:06:06;7.90;62.70
19060;DHT22;9663;48.996;8.334;2023-04-03T02:08:32;8.20;63.30
19060;DHT22;9663;48.996;8.334;2023-04-03T02:10:57;7.90;62.80
19060;DHT22;9663;48.996;8.334;2023-04-03T02:13:23;7.90;61.30
19060;DHT22;9663;48.996;8.334;2023-04-03T02:15:49;7.90;61.40
19060;DHT22;9663;48.996;8.334;2023-04-03T02:18:15;7.80;61.40
19060;DHT22;9663;48.996;8.334;2023-04-03T02:20:41;7.80;61.50
19060;DHT22;9663;48.996;8.334;2023-04-03T02:23:07;7.20;62.90
19060;DHT22;9663;48.996;8.334;2023-04-03T02:25:33;8.70;63.90
19060;DHT22;9663;48.996;8.334;2023-04-03T02:27:59;8.00;63.10
19060;DHT22;9663;48.996;8.334;2023-04-03T02:30:25;7.70;61.50
19060;DHT22;9663;48.996;8.334;2023-04-03T02:32:51;7.70;61.60
19060;DHT22;9663;48.996;8.334;2023-04-03T02:35:18;8.10;63.30
19060;DHT22;9663;48.996;8.334;2023-04-03T02:37:44;8.10;62.90
19060;DHT22;9663;48.996;8.334;2023-04-03T02:40:10;7.20;63.30
19060;DHT22;9663;48.996;8.334;2023-04-03T02:42:36;7.90;64.10
19060;DHT22;9663;48.996;8.334;2023-04-03T02:45:03;9.70;63.40
19060;DHT22;9663;48.996;8.334;2023-04-03T02:47:29;7.50;65.20
19060;DHT22;9663;48.996;8.334;2023-04-03T02:49:55;8.20;64.60
19060;DHT22;9663;48.996;8.334;2023-04-03T02:52:21;7.40;63.10
19060;DHT22;9663;48.996;8.334;2023-04-03T02:54:47;7.40;61.70
19060;DHT22;9663;48.996;8.334;2023-04-03T02:57:12;7.30;63.60
19060;DHT22;9663;48.996;8.334;2023-04-03T02:59:38;7.40;63.40
19060;DHT22;9663;48.996;8.334;2023-04-03T03:02:09;7.40;61.80
19060;DHT22;9663;48.996;8.334;2023-04-03T03:04:35;7.30;61.90
19060;DHT22;9663;48.996;8.334;2023-04-03T03:07:02;7.20;63.40
19060;DHT22;9663;48.996;8.334;2023-04-03T03:09:28;7.20;63.50
19060;DHT22;9663;48.996;8.334;2023-04-03T03:11:55;7.20;61.80
19060;DHT22;9663;48.996;8.334;2023-04-03T03:14:22;6.90;62.80
19060;DHT22;9663;48.996;8.334;2023-04-03T03:16:48;8.00;63.60
19060;DHT22;9663;48.996;8.334;2023-04-03T03:19:14;7.10;61.80
19060;DHT22;9663;48.996;8.334;2023-04-03T03:21:40;7.60;63.70
19060;DHT22;9663;48.996;8.334;2023-04-03T03:24:06;6.10;63.10
19060;DHT22;9663;48.996;8.334;2023-04-03T03:26:32;7.50;65.00
19060;DHT22;9663;48.996;8.334;2023-04-03T03:28:58;6.40;63.10
19060;DHT22;9663;48.996;8.334;2023-04-03T03:31:23;6.20;63.20
19060;DHT22;9663;48.996;8.334;2023-04-03T03:33:49;7.40;63.40
19060;DHT22;9663;48.996;8.334;2023-04-03T03:36:15;6.80;61.90
19060;DHT22;9663;48.996;8.334;2023-04-03T03:38:41;5.10;63.00
19060;DHT22;9663;48.996;8.334;2023-04-03T03:41:06;8.10;64.90
19060;DHT22;9663;48.996;8.334;2023-04-03T03:43:32;7.90;64.60
19060;DHT22;9663;48.996;8.334;2023-04-03T03:45:58;7.30;64.80
19060;DHT22;9663;48.996;8.334;2023-04-03T03:48:24;6.60;62.20
19060;DHT22;9663;48.996;8.334;2023-04-03T03:50:50;6.70;64.80
19060;DHT22;9663;48.996;8.334;2023-04-03T03:53:15;6.70;62.60
19060;DHT22;9663;48.996;8.334;2023-04-03T03:55:41;7.70;64.80
19060;DHT22;9663;48.996;8.334;2023-04-03T03:58:08;7.60;64.00
19060;DHT22;9663;48.996;8.334;2023-04-03T04:00:33;8.80;63.90
19060;DHT22;9663;48.996;8.334;2023-04-03T04:02:59;6.60;62.30
19060;DHT22;9663;48.996;8.334;2023-04-03T04:05:25;6.60;64.50
19060;DHT22;9663;48.996;8.334;2023-04-03T04:07:51;7.80;64.60
19060;DHT22;9663;48.996;8.334;2023-04-03T04:10:17;6.50;64.20
19060;DHT22;9663;48.996;8.334;2023-04-03T04:12:43;6.60;62.50
19060;DHT22;9663;48.996;8.334;2023-04-03T04:15:09;6.60;64.50
19060;DHT22;9663;48.996;8.334;2023-04-03T04:17:36;6.60;64.90
19060;DHT22;9663;48.996;8.334;2023-04-03T04:20:03;7.20;65.30
19060;DHT22;9663;48.996;8.334;2023-04-03T04:22:30;5.10;62.70
19060;DHT22;9663;48.996;8.334;2023-04-03T04:24:56;6.60;62.60
19060;DHT22;9663;48.996;8.334;2023-04-03T04:27:21;5.30;63.70
19060;DHT22;9663;48.996;8.334;2023-04-03T04:29:47;6.70;62.60
19060;DHT22;9663;48.996;8.334;2023-04-03T04:32:13;7.50;65.00
19060;DHT22;9663;48.996;8.334;2023-04-03T04:34:38;6.70;62.60
19060;DHT22;9663;48.996;8.334;2023-04-03T04:37:04;8.00;63.60
19060;DHT22;9663;48.996;8.334;2023-04-03T04:39:30;6.80;64.40
19060;DHT22;9663;48.996;8.334;2023-04-03T04:41:56;6.80;62.50
19060;DHT22;9663;48.996;8.334;2023-04-03T04:44:22;6.90;65.10
19060;DHT22;9663;48.996;8.334;2023-04-03T04:46:47;4.90;63.50
19060;DHT22;9663;48.996;8.334;2023-04-03T04:49:13;7.00;64.60
19060;DHT22;9663;48.996;8.334;2023-04-03T04:51:39;6.70;64.40
19060;DHT22;9663;48.996;8.334;2023-04-03T04:54:04;6.60;64.10
19060;DHT22;9663;48.996;8.334;2023-04-03T04:56:30;5.70;63.90
19060;DHT22;9663;48.996;8.334;2023-04-03T04:58:56;6.90;63.90
19060;DHT22;9663;48.996;8.334;2023-04-03T05:01:22;7.80;64.70
19060;DHT22;9663;48.996;8.334;2023-04-03T05:03:47;6.80;62.50
19060;DHT22;9663;48.996;8.334;2023-04-03T05:06:13;6.70;63.80
19060;DHT22;9663;48.996;8.334;2023-04-03T05:08:39;7.00;64.60
19060;DHT22;9663;48.996;8.334;2023-04-03T05:11:05;6.80;64.60
19060;DHT22;9663;48.996;8.334;2023-04-03T05:13:31;6.70;62.30
19060;DHT22;9663;48.996;8.334;2023-04-03T05:15:56;7.60;65.00
19060;DHT22;9663;48.996;8.334;2023-04-03T05:18:22;6.70;64.20
19060;DHT22;9663;48.996;8.334;2023-04-03T05:20:49;6.40;63.90
19060;DHT22;9663;48.996;8.334;2023-04-03T05:23:16;7.20;63.80
19060;DHT22;9663;48.996;8.334;2023-04-03T05:25:42;6.70;62.30
19060;DHT22;9663;48.996;8.334;2023-04-03T05:28:09;7.20;65.10
19060;DHT22;9663;48.996;8.334;2023-04-03T05:30:35;7.50;64.30
19060;DHT22;9663;48.996;8.334;2023-04-03T05:33:01;6.00;63.90
19060;DHT22;9663;48.996;8.334;2023-04-03T05:35:27;6.60;64.20
19060;DHT22;9663;48.996;8.334;2023-04-03T05:37:53;6.60;64.70
19060;DHT22;9663;48.996;8.334;2023-04-03T05:40:19;6.60;62.20
19060;DHT22;9663;48.996;8.334;2023-04-03T05:42:45;4.70;62.00
19060;DHT22;9663;48.996;8.334;2023-04-03T05:45:11;6.30;63.60
19060;DHT22;9663;48.996;8.334;2023-04-03T05:47:37;6.50;63.90
19060;DHT22;9663;48.996;8.334;2023-04-03T05:50:04;6.60;64.20
19060;DHT22;9663;48.996;8.334;2023-04-03T05:52:33;6.40;63.90
19060;DHT22;9663;48.996;8.334;2023-04-03T05:55:01;6.20;63.70
19060;DHT22;9663;48.996;8.334;2023-04-03T05:57:27;8.50;65.30
19060;DHT22;9663;48.996;8.334;2023-04-03T05:59:53;6.40;64.90
19060;DHT22;9663;48.996;8.334;2023-04-03T06:02:21;7.10;65.40
19060;DHT22;9663;48.996;8.334;2023-04-03T06:04:48;8.70;65.80
19060;DHT22;9663;48.996;8.334;2023-04-03T06:07:19;6.40;63.90
19060;DHT22;9663;48.996;8.334;2023-04-03T06:09:48;7.10;63.70
19060;DHT22;9663;48.996;8.334;2023-04-03T06:12:16;6.70;63.50
19060;DHT22;9663;48.996;8.334;2023-04-03T06:14:43;5.90;63.00
19060;DHT22;9663;48.996;8.334;2023-04-03T06:17:09;6.80;64.50
19060;DHT22;9663;48.996;8.334;2023-04-03T06:19:36;7.40;63.80
19060;DHT22;9663;48.996;8.334;2023-04-03T06:22:02;6.50;63.90
19060;DHT22;9663;48.996;8.334;2023-04-03T06:24:29;6.80;64.40
19060;DHT22;9663;48.996;8.334;2023-04-03T06:26:56;6.90;62.40
19060;DHT22;9663;48.996;8.334;2023-04-03T06:29:22;6.70;63.20
19060;DHT22;9663;48.996;8.334;2023-04-03T06:31:49;7.00;64.30
19060;DHT22;9663;48.996;8.334;2023-04-03T06:34:16;6.90;63.20
19060;DHT22;9663;48.996;8.334;2023-04-03T06:36:44;7.50;64.40
19060;DHT22;9663;48.996;8.334;2023-04-03T06:39:15;7.80;64.20
19060;DHT22;9663;48.996;8.334;2023-04-03T06:41:43;7.30;63.50
19060;DHT22;9663;48.996;8.334;2023-04-03T06:44:10;8.50;64.30
19060;DHT22;9663;48.996;8.334;2023-04-03T06:46:37;7.40;61.90
19060;DHT22;9663;48.996;8.334;2023-04-03T06:49:04;7.40;63.60
19060;DHT22;9663;48.996;8.334;2023-04-03T06:51:32;9.60;64.90
19060;DHT22;9663;48.996;8.334;2023-04-03T06:53:59;7.50;62.50
19060;DHT22;9663;48.996;8.334;2023-04-03T06:56:26;8.80;64.20
19060;DHT22;9663;48.996;8.334;2023-04-03T06:58:53;6.70;62.40
19060;DHT22;9663;48.996;8.334;2023-04-03T07:01:23;9.60;64.40
19060;DHT22;9663;48.996;8.334;2023-04-03T07:03:50;6.70;62.90
19060;DHT22;9663;48.996;8.334;2023-04-03T07:06:17;7.80;61.90
19060;DHT22;9663;48.996;8.334;2023-04-03T07:08:44;9.50;63.60
19060;DHT22;9663;48.996;8.334;2023-04-03T07:11:12;8.00;61.50
19060;DHT22;9663;48.996;8.334;2023-04-03T07:13:38;7.70;62.80
19060;DHT22;9663;48.996;8.334;2023-04-03T07:16:05;11.20;64.50
19060;DHT22;9663;48.996;8.334;2023-04-03T07:18:34;6.50;61.60
19060;DHT22;9663;48.996;8.334;2023-04-03T07:21:00;8.10;62.30
19060;DHT22;9663;48.996;8.334;2023-04-03T07:23:26;8.30;64.00
19060;DHT22;9663;48.996;8.334;2023-04-03T07:25:53;7.20;62.70
19060;DHT22;9663;48.996;8.334;2023-04-03T07:28:20;8.20;62.10
19060;DHT22;9663;48.996;8.334;2023-04-03T07:31:18;8.30;61.30
19060;DHT22;9663;48.996;8.334;2023-04-03T07:34:00;8.40;62.20
19060;DHT22;9663;48.996;8.334;2023-04-03T07:36:26;8.10;62.50
19060;DHT22;9663;48.996;8.334;2023-04-03T07:38:52;8.20;62.70
19060;DHT22;9663;48.996;8.334;2023-04-03T07:41:19;7.50;62.50
19060;DHT22;9663;48.996;8.334;2023-04-03T07:43:46;9.90;63.40
19060;DHT22;9663;48.996;8.334;2023-04-03T07:46:12;9.80;63.90
19060;DHT22;9663;48.996;8.334;2023-04-03T07:48:38;11.20;64.80
19060;DHT22;9663;48.996;8.334;2023-04-03T07:51:04;8.80;62.30
19060;DHT22;9663;48.996;8.334;2023-04-03T07:53:31;8.70;62.70
19060;DHT22;9663;48.996;8.334;2023-04-03T07:55:58;11.00;63.50
19060;DHT22;9663;48.996;8.334;2023-04-03T07:58:25;9.10;62.20
19060;DHT22;9663;48.996;8.334;2023-04-03T08:00:51;9.30;63.00
19060;DHT22;9663;48.996;8.334;2023-04-03T08:03:17;7.80;60.50
19060;DHT22;9663;48.996;8.334;2023-04-03T08:05:47;8.80;62.70
19060;DHT22;9663;48.996;8.334;2023-04-03T08:08:16;9.30;61.80
19060;DHT22;9663;48.996;8.334;2023-04-03T08:10:48;10.40;62.40
19060;DHT22;9663;48.996;8.334;2023-04-03T08:13:15;7.70;59.70
19060;DHT22;9663;48.996;8.334;2023-04-03T08:15:41;8.80;62.20
19060;DHT22;9663;48.996;8.334;2023-04-03T08:18:07;9.70;64.30
19060;DHT22;9663;48.996;8.334;2023-04-03T08:20:32;8.40;60.50
19060;DHT22;9663;48.996;8.334;2023-04-03T08:22:58;10.00;60.70
19060;DHT22;9663;48.996;8.334;2023-04-03T08:25:24;10.10;61.10
19060;DHT22;9663;48.996;8.334;2023-04-03T08:27:50;7.50;59.20
19060;DHT22;9663;48.996;8.334;2023-04-03T08:30:16;8.50;59.70
19060;DHT22;9663;48.996;8.334;2023-04-03T08:32:42;12.50;59.90
19060;DHT22;9663;48.996;8.334;2023-04-03T08:35:09;13.20;63.60
19060;DHT22;9663;48.996;8.334;2023-04-03T08:37:36;9.90;60.20
19060;DHT22;9663;48.996;8.334;2023-04-03T08:40:10;10.90;61.20
19060;DHT22;9663;48.996;8.334;2023-04-03T08:45:45;12.90;63.00
19060;DHT22;9663;48.996;8.334;2023-04-03T08:48:29;10.10;60.70
19060;DHT22;9663;48.996;8.334;2023-04-03T08:51:00;13.40;60.80
19060;DHT22;9663;48.996;8.334;2023-04-03T08:53:33;9.80;58.60
19060;DHT22;9663;48.996;8.334;2023-04-03T08:56:07;13.00;60.00
19060;DHT22;9663;48.996;8.334;2023-04-03T08:59:14;10.90;59.70
19060;DHT22;9663;48.996;8.334;2023-04-03T09:01:47;12.10;59.40
19060;DHT22;9663;48.996;8.334;2023-04-03T09:04:31;11.40;59.20
19060;DHT22;9663;48.996;8.334;2023-04-03T09:10:02;12.70;62.00
19060;DHT22;9663;48.996;8.334;2023-04-03T09:12:36;12.90;58.70
19060;DHT22;9663;48.996;8.334;2023-04-03T09:15:22;13.10;60.70
19060;DHT22;9663;48.996;8.334;2023-04-03T09:20:54;12.20;59.90
19060;DHT22;9663;48.996;8.334;2023-04-03T09:23:46;15.40;61.00
19060;DHT22;9663;48.996;8.334;2023-04-03T09:26:33;14.90;59.80
19060;DHT22;9663;48.996;8.334;2023-04-03T09:29:08;13.40;58.10
19060;DHT22;9663;48.996;8.334;2023-04-03T09:31:40;12.10;57.50
19060;DHT22;9663;48.996;8.334;2023-04-03T09:34:22;13.50;58.30
19060;DHT22;9663;48.996;8.334;2023-04-03T09:36:53;14.70;58.20
19060;DHT22;9663;48.996;8.334;2023-04-03T09:39:24;14.30;55.50
19060;DHT22;9663;48.996;8.334;2023-04-03T09:42:01;14.30;57.30
19060;DHT22;9663;48.996;8.334;2023-04-03T09:44:33;14.70;58.30
19060;DHT22;9663;48.996;8.334;2023-04-03T09:52:38;15.70;57.10
19060;DHT22;9663;48.996;8.334;2023-04-03T09:55:26;15.10;57.70
19060;DHT22;9663;48.996;8.334;2023-04-03T09:58:01;15.70;56.50
19060;DHT22;9663;48.996;8.334;2023-04-03T10:00:37;15.30;54.80
19060;DHT22;9663;48.996;8.334;2023-04-03T10:03:20;15.50;56.40
19060;DHT22;9663;48.996;8.334;2023-04-03T10:05:50;14.10;56.00
19060;DHT22;9663;48.996;8.334;2023-04-03T10:08:30;15.70;56.30
19060;DHT22;9663;48.996;8.334;2023-04-03T10:13:56;13.70;54.90
19060;DHT22;9663;48.996;8.334;2023-04-03T10:16:52;15.50;54.80
19060;DHT22;9663;48.996;8.334;2023-04-03T10:25:44;15.60;53.10
19060;DHT22;9663;48.996;8.334;2023-04-03T10:28:43;15.70;53.50
19060;DHT22;9663;48.996;8.334;2023-04-03T10:34:38;15.70;53.20
19060;DHT22;9663;48.996;8.334;2023-04-03T10:37:16;14.80;53.10
19060;DHT22;9663;48.996;8.334;2023-04-03T10:39:59;15.90;52.70
19060;DHT22;9663;48.996;8.334;2023-04-03T10:43:06;14.10;54.40
19060;DHT22;9663;48.996;8.334;2023-04-03T10:46:02;16.40;54.20
19060;DHT22;9663;48.996;8.334;2023-04-03T10:53:56;15.90;53.70
19060;DHT22;9663;48.996;8.334;2023-04-03T10:56:35;16.30;55.00
19060;DHT22;9663;48.996;8.334;2023-04-03T11:02:48;13.40;52.80
19060;DHT22;9663;48.996;8.334;2023-04-03T11:05:05;16.80;53.50
19060;DHT22;9663;48.996;8.334;2023-04-03T11:07:39;15.10;50.50
19060;DHT22;9663;48.996;8.334;2023-04-03T11:10:21;14.80;53.30
19060;DHT22;9663;48.996;8.334;2023-04-03T11:12:59;14.30;51.90
19060;DHT22;9663;48.996;8.334;2023-04-03T11:15:33;13.80;53.40
19060;DHT22;9663;48.996;8.334;2023-04-03T11:18:06;13.80;53.40
19060;DHT22;9663;48.996;8.334;2023-04-03T11:20:37;13.40;50.70
19060;DHT22;9663;48.996;8.334;2023-04-03T11:23:33;15.50;52.70
19060;DHT22;9663;48.996;8.334;2023-04-03T11:26:12;14.70;51.80
19060;DHT22;9663;48.996;8.334;2023-04-03T11:28:58;14.40;52.00
19060;DHT22;9663;48.996;8.334;2023-04-03T11:31:42;13.20;52.40
19060;DHT22;9663;48.996;8.334;2023-04-03T11:34:34;14.60;48.80
19060;DHT22;9663;48.996;8.334;2023-04-03T11:37:29;14.50;51.90
19060;DHT22;9663;48.996;8.334;2023-04-03T11:40:08;16.10;52.40
19060;DHT22;9663;48.996;8.334;2023-04-03T11:43:06;14.70;51.30
19060;DHT22;9663;48.996;8.334;2023-04-03T11:45:56;15.30;51.70
19060;DHT22;9663;48.996;8.334;2023-04-03T11:50:54;15.50;51.20
19060;DHT22;9663;48.996;8.334;2023-04-03T11:53:33;16.50;53.70
19060;DHT22;9663;48.996;8.334;2023-04-03T11:56:26;14.10;50.30
19060;DHT22;9663;48.996;8.334;2023-04-03T12:01:52;15.20;52.40
19060;DHT22;9663;48.996;8.334;2023-04-03T12:04:21;17.40;53.10
19060;DHT22;9663;48.996;8.334;2023-04-03T12:09:58;17.10;53.70
19060;DHT22;9663;48.996;8.334;2023-04-03T12:12:27;15.60;50.30
19060;DHT22;9663;48.996;8.334;2023-04-03T12:15:18;15.80;51.40
19060;DHT22;9663;48.996;8.334;2023-04-03T12:17:47;16.50;51.80
19060;DHT22;9663;48.996;8.334;2023-04-03T12:28:42;16.10;54.00
19060;DHT22;9663;48.996;8.334;2023-04-03T12:31:10;14.50;50.20
19060;DHT22;9663;48.996;8.334;2023-04-03T12:34:01;15.50;52.20
19060;DHT22;9663;48.996;8.334;2023-04-03T12:45:20;14.30;51.80
19060;DHT22;9663;48.996;8.334;2023-04-03T12:47:53;15.70;51.30
19060;DHT22;9663;48.996;8.334;2023-04-03T12:50:30;16.80;53.00
19060;DHT22;9663;48.996;8.334;2023-04-03T12:55:32;13.90;50.80
19060;DHT22;9663;48.996;8.334;2023-04-03T12:58:16;14.50;50.10
19060;DHT22;9663;48.996;8.334;2023-04-03T13:00:48;16.00;50.80
19060;DHT22;9663;48.996;8.334;2023-04-03T13:03:47;14.80;51.20
19060;DHT22;9663;48.996;8.334;2023-04-03T13:06:38;13.40;50.80
19060;DHT22;9663;48.996;8.334;2023-04-03T13:09:21;15.70;51.00
19060;DHT22;9663;48.996;8.334;2023-04-03T13:12:01;13.90;50.00
19060;DHT22;9663;48.996;8.334;2023-04-03T13:14:57;13.80;47.80
19060;DHT22;9663;48.996;8.334;2023-04-03T13:17:26;14.10;48.40
19060;DHT22;9663;48.996;8.334;2023-04-03T13:19:53;13.70;49.00
19060;DHT22;9663;48.996;8.334;2023-04-03T13:22:36;13.00;51.00
19060;DHT22;9663;48.996;8.334;2023-04-03T13:25:09;11.40;49.60
19060;DHT22;9663;48.996;8.334;2023-04-03T13:27:38;13.50;50.20
19060;DHT22;9663;48.996;8.334;2023-04-03T13:30:30;13.50;51.50
19060;DHT22;9663;48.996;8.334;2023-04-03T13:33:00;13.30;52.30
19060;DHT22;9663;48.996;8.334;2023-04-03T13:35:55;13.40;50.70
19060;DHT22;9663;48.996;8.334;2023-04-03T13:38:25;13.90;50.80
19060;DHT22;9663;48.996;8.334;2023-04-03T13:40:58;13.20;51.50
19060;DHT22;9663;48.996;8.334;2023-04-03T13:43:35;13.70;51.60
19060;DHT22;9663;48.996;8.334;2023-04-03T13:46:20;14.20;50.60
19060;DHT22;9663;48.996;8.334;2023-04-03T13:48:52;13.70;49.40
19060;DHT22;9663;48.996;8.334;2023-04-03T13:51:24;12.70;51.10
19060;DHT22;9663;48.996;8.334;2023-04-03T13:53:56;13.90;50.70
19060;DHT22;9663;48.996;8.334;2023-04-03T13:56:32;14.10;49.40
19060;DHT22;9663;48.996;8.334;2023-04-03T14:02:08;12.80;51.90
19060;DHT22;9663;48.996;8.334;2023-04-03T14:07:11;14.30;51.10
19060;DHT22;9663;48.996;8.334;2023-04-03T14:09:38;16.20;51.60
19060;DHT22;9663;48.996;8.334;2023-04-03T14:12:13;15.50;51.60
19060;DHT22;9663;48.996;8.334;2023-04-03T14:14:43;14.60;49.30
19060;DHT22;9663;48.996;8.334;2023-04-03T14:17:27;13.80;49.50
19060;DHT22;9663;48.996;8.334;2023-04-03T14:19:55;14.50;48.20
19060;DHT22;9663;48.996;8.334;2023-04-03T14:22:27;17.20;51.40
19060;DHT22;9663;48.996;8.334;2023-04-03T14:24:55;15.20;49.60
19060;DHT22;9663;48.996;8.334;2023-04-03T14:27:24;16.40;51.10
19060;DHT22;9663;48.996;8.334;2023-04-03T14:29:56;14.20;47.80
19060;DHT22;9663;48.996;8.334;2023-04-03T14:32:24;12.40;49.00
19060;DHT22;9663;48.996;8.334;2023-04-03T14:34:51;13.60;48.50
19060;DHT22;9663;48.996;8.334;2023-04-03T14:37:23;12.30;46.90
19060;DHT22;9663;48.996;8.334;2023-04-03T14:39:52;12.90;49.20
19060;DHT22;9663;48.996;8.334;2023-04-03T14:42:27;12.30;49.90
19060;DHT22;9663;48.996;8.334;2023-04-03T14:44:59;14.20;50.00
19060;DHT22;9663;48.996;8.334;2023-04-03T14:47:28;15.50;50.70
19060;DHT22;9663;48.996;8.334;2023-04-03T14:49:54;13.80;49.50
19060;DHT22;9663;48.996;8.334;2023-04-03T14:52:30;13.00;51.40
19060;DHT22;9663;48.996;8.334;2023-04-03T14:54:58;12.90;51.50
19060;DHT22;9663;48.996;8.334;2023-04-03T14:57:27;15.30;53.70
19060;DHT22;9663;48.996;8.334;2023-04-03T14:59:55;15.60;51.90
19060;DHT22;9663;48.996;8.334;2023-04-03T15:02:36;16.00;50.60
19060;DHT22;9663;48.996;8.334;2023-04-03T15:05:05;17.40;51.00
19060;DHT22;9663;48.996;8.334;2023-04-03T15:07:35;15.30;48.70
19060;DHT22;9663;48.996;8.334;2023-04-03T15:10:18;16.10;48.00
19060;DHT22;9663;48.996;8.334;2023-04-03T15:12:45;16.70;47.20
19060;DHT22;9663;48.996;8.334;2023-04-03T15:15:13;15.70;48.20
19060;DHT22;9663;48.996;8.334;2023-04-03T15:17:39;15.20;47.00
19060;DHT22;9663;48.996;8.334;2023-04-03T15:20:17;15.20;48.10
19060;DHT22;9663;48.996;8.334;2023-04-03T15:22:45;15.40;49.40
19060;DHT22;9663;48.996;8.334;2023-04-03T15:25:11;16.40;48.30
19060;DHT22;9663;48.996;8.334;2023-04-03T15:27:39;17.80;52.40
19060;DHT22;9663;48.996;8.334;2023-04-03T15:30:08;15.40;49.30
19060;DHT22;9663;48.996;8.334;2023-04-03T15:32:38;17.40;46.90
19060;DHT22;9663;48.996;8.334;2023-04-03T15:35:04;16.60;47.60
19060;DHT22;9663;48.996;8.334;2023-04-03T15:37:30;15.90;47.10
19060;DHT22;9663;48.996;8.334;2023-04-03T15:39:56;17.30;47.40
19060;DHT22;9663;48.996;8.334;2023-04-03T15:42:21;18.50;49.40
19060;DHT22;9663;48.996;8.334;2023-04-03T15:44:47;19.50;48.30
19060;DHT22;9663;48.996;8.334;2023-04-03T15:47:13;16.30;48.70
19060;DHT22;9663;48.996;8.334;2023-04-03T15:49:39;18.30;46.80
19060;DHT22;9663;48.996;8.334;2023-04-03T15:52:05;19.10;46.60
19060;DHT22;9663;48.996;8.334;2023-04-03T15:54:31;19.50;49.50
19060;DHT22;9663;48.996;8.334;2023-04-03T15:56:56;19.90;48.80
19060;DHT22;9663;48.996;8.334;2023-04-03T15:59:22;20.50;47.50
19060;DHT22;9663;48.996;8.334;2023-04-03T16:01:49;20.50;45.90
19060;DHT22;9663;48.996;8.334;2023-04-03T16:04:16;19.80;43.10
19060;DHT22;9663;48.996;8.334;2023-04-03T16:06:43;19.50;44.30
19060;DHT22;9663;48.996;8.334;2023-04-03T16:09:09;19.30;44.20
19060;DHT22;9663;48.996;8.334;2023-04-03T16:11:36;18.90;44.80
19060;DHT22;9663;48.996;8.334;2023-04-03T16:14:04;20.30;47.10
19060;DHT22;9663;48.996;8.334;2023-04-03T16:16:31;16.90;43.20
19060;DHT22;9663;48.996;8.334;2023-04-03T16:18:57;19.10;47.10
19060;DHT22;9663;48.996;8.334;2023-04-03T16:21:23;19.20;46.60
19060;DHT22;9663;48.996;8.334;2023-04-03T16:23:50;19.80;46.80
19060;DHT22;9663;48.996;8.334;2023-04-03T16:26:16;17.40;44.90
19060;DHT22;9663;48.996;8.334;2023-04-03T16:28:43;20.20;45.40
19060;DHT22;9663;48.996;8.334;2023-04-03T16:31:09;20.00;44.20
19060;DHT22;9663;48.996;8.334;2023-04-03T16:33:35;20.90;44.10
19060;DHT22;9663;48.996;8.334;2023-04-03T16:36:03;20.20;43.70
19060;DHT22;9663;48.996;8.334;2023-04-03T16:38:30;19.70;43.60
19060;DHT22;9663;48.996;8.334;2023-04-03T16:40:55;20.30;44.30
19060;DHT22;9663;48.996;8.334;2023-04-03T16:43:27;18.90;42.80
19060;DHT22;9663;48.996;8.334;2023-04-03T16:45:53;19.10;42.30
19060;DHT22;9663;48.996;8.334;2023-04-03T16:48:19;18.90;45.50
19060;DHT22;9663;48.996;8.334;2023-04-03T16:50:48;18.90;44.20
19060;DHT22;9663;48.996;8.334;2023-04-03T16:53:16;18.90;44.00
19060;DHT22;9663;48.996;8.334;2023-04-03T16:55:41;19.20;42.60
19060;DHT22;9663;48.996;8.334;2023-04-03T16:58:07;20.10;45.00
19060;DHT22;9663;48.996;8.334;2023-04-03T17:00:33;19.30;42.00
19060;DHT22;9663;48.996;8.334;2023-04-03T17:02:59;19.20;41.00
19060;DHT22;9663;48.996;8.334;2023-04-03T17:05:26;18.20;40.60
19060;DHT22;9663;48.996;8.334;2023-04-03T17:07:51;18.70;42.60
19060;DHT22;9663;48.996;8.334;2023-04-03T17:10:17;18.00;40.80
19060;DHT22;9663;48.996;8.334;2023-04-03T17:12:43;17.20;40.80
19060;DHT22;9663;48.996;8.334;2023-04-03T17:15:09;16.50;41.90
19060;DHT22;9663;48.996;8.334;2023-04-03T17:17:35;16.50;40.00
19060;DHT22;9663;48.996;8.334;2023-04-03T17:20:02;16.20;42.40
19060;DHT22;9663;48.996;8.334;2023-04-03T17:22:29;15.50;42.10